createdAt,value
2017-07-25T00:00:57.787Z,19.69
2017-07-25T00:01:57.490Z,19.76
2017-07-25T00:02:57.696Z,19.74
2017-07-25T00:03:57.850Z,19.82
2017-07-25T00:04:57.876Z,19.71
2017-07-25T00:05:57.900Z,19.82
2017-07-25T00:06:57.918Z,19.77
2017-07-25T00:07:57.942Z,19.77
2017-07-25T00:08:57.972Z,19.84
2017-07-25T00:09:58.105Z,19.69
2017-07-25T00:10:57.691Z,19.79
2017-07-25T00:11:58.137Z,19.79
2017-07-25T00:12:58.138Z,19.73
2017-07-25T00:13:58.137Z,19.71
2017-07-25T00:14:57.793Z,19.81
2017-07-25T00:15:57.809Z,19.73
2017-07-25T00:16:57.834Z,19.84
2017-07-25T00:17:57.956Z,19.7
2017-07-25T00:18:58.314Z,19.73
2017-07-25T00:19:57.980Z,19.74
2017-07-25T00:20:58.279Z,19.73
2017-07-25T00:21:58.278Z,19.77
2017-07-25T00:22:57.985Z,19.76
2017-07-25T00:23:58.317Z,19.73
2017-07-25T00:24:58.331Z,19.73
2017-07-25T00:25:58.361Z,19.73
2017-07-25T00:26:58.146Z,19.73
2017-07-25T00:27:58.402Z,19.67
2017-07-25T00:28:58.149Z,19.64
2017-07-25T00:29:58.450Z,19.66
2017-07-25T00:30:58.178Z,19.63
2017-07-25T00:31:58.178Z,19.63
2017-07-25T00:32:58.521Z,19.69
2017-07-25T00:33:58.538Z,19.59
2017-07-25T00:34:58.559Z,19.63
2017-07-25T00:35:58.590Z,19.66
2017-07-25T00:36:58.605Z,19.62
2017-07-25T00:37:58.638Z,19.58
2017-07-25T00:38:58.653Z,19.54
2017-07-25T00:39:58.677Z,19.71
2017-07-25T00:40:58.699Z,19.55
2017-07-25T00:41:58.091Z,19.62
2017-07-25T00:42:58.740Z,19.56
2017-07-25T00:43:58.784Z,19.58
2017-07-25T00:44:58.478Z,19.54
2017-07-25T00:45:58.514Z,19.55
2017-07-25T00:46:58.208Z,19.59
2017-07-25T00:47:59.473Z,19.63
2017-07-25T00:48:58.885Z,19.63
2017-07-25T00:49:58.589Z,19.62
2017-07-25T00:50:58.930Z,19.59
2017-07-25T00:51:58.981Z,19.54
2017-07-25T00:52:58.986Z,19.56
2017-07-25T00:53:58.683Z,19.62
2017-07-25T00:54:59.022Z,19.55
2017-07-25T00:55:58.728Z,19.56
2017-07-25T00:56:59.084Z,19.63
2017-07-25T00:57:58.777Z,19.58
2017-07-25T00:58:59.129Z,19.45
2017-07-25T00:59:58.824Z,19.52
2017-07-25T01:00:59.158Z,19.51
2017-07-25T01:01:58.875Z,19.54
2017-07-25T01:02:58.889Z,19.48
2017-07-25T01:03:59.225Z,19.47
2017-07-25T01:04:59.257Z,19.66
2017-07-25T01:05:59.271Z,19.64
2017-07-25T01:06:59.299Z,19.62
2017-07-25T01:07:58.998Z,19.47
2017-07-25T01:08:59.342Z,19.66
2017-07-25T01:09:59.359Z,19.64
2017-07-25T01:10:59.385Z,19.56
2017-07-25T01:11:59.089Z,19.54
2017-07-25T01:12:59.116Z,19.48
2017-07-25T01:13:59.457Z,19.52
2017-07-25T01:14:59.487Z,19.55
2017-07-25T01:15:59.501Z,19.54
2017-07-25T01:16:59.208Z,19.45
2017-07-25T01:17:59.545Z,19.48
2017-07-25T01:18:59.567Z,19.51
2017-07-25T01:19:59.590Z,19.51
2017-07-25T01:20:59.304Z,19.49
2017-07-25T01:21:59.641Z,19.48
2017-07-25T01:22:59.663Z,19.56
2017-07-25T01:23:59.684Z,19.51
2017-07-25T01:24:59.699Z,19.48
2017-07-25T01:25:59.734Z,19.54
2017-07-25T01:26:59.768Z,19.36
2017-07-25T01:27:59.776Z,19.41
2017-07-25T01:28:59.801Z,19.55
2017-07-25T01:29:59.824Z,19.44
2017-07-25T01:30:59.840Z,19.54
2017-07-25T01:31:59.863Z,19.37
2017-07-25T01:32:59.894Z,19.47
2017-07-25T01:33:59.915Z,19.48
2017-07-25T01:34:59.934Z,19.39
2017-07-25T01:35:59.331Z,19.41
2017-07-25T01:36:59.353Z,19.4
2017-07-25T01:38:00.049Z,19.41
2017-07-25T01:39:00.112Z,19.36
2017-07-25T01:40:00.125Z,19.41
2017-07-25T01:41:00.114Z,19.31
2017-07-25T01:41:59.849Z,19.31
2017-07-25T01:43:00.238Z,19.41
2017-07-25T01:44:00.134Z,19.41
2017-07-25T01:44:59.863Z,19.4
2017-07-25T01:45:59.869Z,19.49
2017-07-25T01:47:00.204Z,19.36
2017-07-25T01:48:00.228Z,19.33
2017-07-25T01:48:59.934Z,19.36
2017-07-25T01:49:59.957Z,19.3
2017-07-25T01:50:59.976Z,19.45
2017-07-25T01:52:00.316Z,19.31
2017-07-25T01:53:00.339Z,19.24
2017-07-25T01:54:00.373Z,19.4
2017-07-25T01:55:00.069Z,19.4
2017-07-25T01:56:00.627Z,19.3
2017-07-25T01:57:00.669Z,19.31
2017-07-25T01:58:00.320Z,19.44
2017-07-25T01:59:00.647Z,19.3
2017-07-25T02:00:00.846Z,19.41
2017-07-25T02:01:00.749Z,19.27
2017-07-25T02:02:00.763Z,19.33
2017-07-25T02:03:00.792Z,19.27
2017-07-25T02:04:00.599Z,19.3
2017-07-25T02:05:00.610Z,19.33
2017-07-25T02:06:00.968Z,19.31
2017-07-25T02:07:00.654Z,19.34
2017-07-25T02:08:00.746Z,19.3
2017-07-25T02:09:00.703Z,19.26
2017-07-25T02:10:00.733Z,19.34
2017-07-25T02:11:00.115Z,19.33
2017-07-25T02:12:01.084Z,19.27
2017-07-25T02:13:00.989Z,19.31
2017-07-25T02:14:00.852Z,19.22
2017-07-25T02:15:00.841Z,19.34
2017-07-25T02:16:00.866Z,19.27
2017-07-25T02:17:00.886Z,19.29
2017-07-25T02:18:00.902Z,19.33
2017-07-25T02:19:00.614Z,19.26
2017-07-25T02:20:00.950Z,19.29
2017-07-25T02:21:00.977Z,19.29
2017-07-25T02:22:01.037Z,19.3
2017-07-25T02:23:00.383Z,19.27
2017-07-25T02:24:00.729Z,19.27
2017-07-25T02:25:01.069Z,19.15
2017-07-25T02:26:01.086Z,19.3
2017-07-25T02:27:01.111Z,19.15
2017-07-25T02:28:01.143Z,19.29
2017-07-25T02:29:01.147Z,19.22
2017-07-25T02:30:00.859Z,19.26
2017-07-25T02:31:01.195Z,19.33
2017-07-25T02:32:01.230Z,19.18
2017-07-25T02:33:00.935Z,19.3
2017-07-25T02:34:01.263Z,19.19
2017-07-25T02:35:00.970Z,19.16
2017-07-25T02:36:01.313Z,19.16
2017-07-25T02:37:01.329Z,19.14
2017-07-25T02:38:01.511Z,19.16
2017-07-25T02:39:01.381Z,19.16
2017-07-25T02:40:01.400Z,19.19
2017-07-25T02:41:01.427Z,19.15
2017-07-25T02:42:01.461Z,19.15
2017-07-25T02:43:01.488Z,19.11
2017-07-25T02:44:01.504Z,19.16
2017-07-25T02:45:01.518Z,19.26
2017-07-25T02:46:01.222Z,19.16
2017-07-25T02:47:01.244Z,19.15
2017-07-25T02:48:01.588Z,19.24
2017-07-25T02:49:01.288Z,19.14
2017-07-25T02:50:01.626Z,19.07
2017-07-25T02:51:01.646Z,19.14
2017-07-25T02:52:02.024Z,19.14
2017-07-25T02:53:01.694Z,19.14
2017-07-25T02:54:01.933Z,19.14
2017-07-25T02:55:01.864Z,19.14
2017-07-25T02:56:01.850Z,19.14
2017-07-25T02:57:01.989Z,19.02
2017-07-25T02:58:01.992Z,19.12
2017-07-25T02:59:01.685Z,19.11
2017-07-25T03:00:02.030Z,19.18
2017-07-25T03:01:02.001Z,19.09
2017-07-25T03:02:01.992Z,19.14
2017-07-25T03:03:01.780Z,19.11
2017-07-25T03:04:02.060Z,19
2017-07-25T03:05:02.046Z,19.02
2017-07-25T03:06:02.068Z,19.12
2017-07-25T03:07:02.069Z,19.12
2017-07-25T03:08:01.753Z,19.08
2017-07-25T03:09:02.072Z,19.07
2017-07-25T03:10:01.756Z,19.04
2017-07-25T03:11:02.094Z,19.04
2017-07-25T03:12:02.124Z,19.04
2017-07-25T03:13:01.835Z,19.08
2017-07-25T03:14:02.166Z,19.07
2017-07-25T03:15:02.190Z,19.07
2017-07-25T03:16:02.216Z,19.02
2017-07-25T03:17:02.234Z,19.04
2017-07-25T03:18:02.251Z,18.99
2017-07-25T03:19:02.278Z,19.08
2017-07-25T03:20:01.986Z,18.99
2017-07-25T03:21:02.330Z,18.98
2017-07-25T03:22:02.027Z,19.09
2017-07-25T03:23:02.363Z,19.04
2017-07-25T03:24:02.075Z,18.96
2017-07-25T03:25:02.407Z,18.95
2017-07-25T03:26:02.459Z,19
2017-07-25T03:27:02.694Z,18.98
2017-07-25T03:28:02.484Z,19.07
2017-07-25T03:29:02.497Z,18.99
2017-07-25T03:30:02.533Z,19
2017-07-25T03:31:02.560Z,18.96
2017-07-25T03:32:02.575Z,18.98
2017-07-25T03:33:02.590Z,19.02
2017-07-25T03:34:02.611Z,19
2017-07-25T03:35:02.642Z,18.93
2017-07-25T03:36:02.668Z,18.99
2017-07-25T03:37:02.679Z,19.09
2017-07-25T03:38:02.702Z,18.96
2017-07-25T03:39:02.736Z,19.02
2017-07-25T03:40:02.430Z,19.04
2017-07-25T03:41:02.767Z,19
2017-07-25T03:42:02.481Z,18.95
2017-07-25T03:43:02.815Z,19.02
2017-07-25T03:44:02.854Z,18.93
2017-07-25T03:45:02.864Z,18.9
2017-07-25T03:46:02.880Z,19.07
2017-07-25T03:47:02.901Z,18.98
2017-07-25T03:48:02.614Z,18.98
2017-07-25T03:49:02.949Z,18.93
2017-07-25T03:50:02.975Z,18.99
2017-07-25T03:51:02.993Z,18.96
2017-07-25T03:52:02.782Z,18.99
2017-07-25T03:53:02.720Z,19.02
2017-07-25T03:54:03.064Z,19.02
2017-07-25T03:55:03.165Z,18.92
2017-07-25T03:56:02.805Z,18.95
2017-07-25T03:57:03.123Z,18.93
2017-07-25T03:58:03.178Z,18.9
2017-07-25T03:59:02.854Z,18.96
2017-07-25T04:00:03.202Z,18.93
2017-07-25T04:01:02.902Z,18.9
2017-07-25T04:02:03.255Z,18.92
2017-07-25T04:03:02.942Z,18.95
2017-07-25T04:04:02.651Z,18.9
2017-07-25T04:05:02.685Z,18.95
2017-07-25T04:06:02.700Z,18.8
2017-07-25T04:07:03.031Z,18.83
2017-07-25T04:08:03.380Z,18.93
2017-07-25T04:09:02.765Z,18.95
2017-07-25T04:10:03.438Z,18.89
2017-07-25T04:11:03.119Z,18.84
2017-07-25T04:12:03.161Z,18.93
2017-07-25T04:13:03.486Z,18.92
2017-07-25T04:14:03.503Z,18.9
2017-07-25T04:15:03.536Z,18.89
2017-07-25T04:16:03.556Z,18.88
2017-07-25T04:17:03.572Z,18.83
2017-07-25T04:18:03.605Z,18.86
2017-07-25T04:19:03.618Z,18.9
2017-07-25T04:20:03.760Z,18.9
2017-07-25T04:21:03.137Z,18.89
2017-07-25T04:22:03.366Z,18.92
2017-07-25T04:23:03.398Z,18.92
2017-07-25T04:24:03.791Z,18.89
2017-07-25T04:25:03.761Z,18.86
2017-07-25T04:26:03.775Z,18.92
2017-07-25T04:27:03.799Z,18.9
2017-07-25T04:28:03.818Z,18.89
2017-07-25T04:29:03.871Z,18.86
2017-07-25T04:30:03.871Z,18.86
2017-07-25T04:31:03.565Z,18.86
2017-07-25T04:32:03.323Z,18.86
2017-07-25T04:33:03.930Z,18.81
2017-07-25T04:34:03.651Z,18.8
2017-07-25T04:35:03.970Z,18.83
2017-07-25T04:36:03.997Z,18.84
2017-07-25T04:37:04.018Z,18.81
2017-07-25T04:38:04.051Z,18.77
2017-07-25T04:39:04.068Z,18.83
2017-07-25T04:40:04.077Z,18.86
2017-07-25T04:41:04.120Z,18.81
2017-07-25T04:42:04.136Z,18.75
2017-07-25T04:43:04.146Z,18.77
2017-07-25T04:44:04.170Z,18.81
2017-07-25T04:45:04.210Z,18.8
2017-07-25T04:46:04.212Z,18.77
2017-07-25T04:47:03.920Z,18.77
2017-07-25T04:48:04.265Z,18.84
2017-07-25T04:49:03.977Z,18.78
2017-07-25T04:50:04.317Z,18.83
2017-07-25T04:51:04.331Z,18.84
2017-07-25T04:52:04.362Z,18.78
2017-07-25T04:53:04.372Z,18.83
2017-07-25T04:54:04.087Z,18.83
2017-07-25T04:55:04.418Z,18.84
2017-07-25T04:56:04.654Z,18.78
2017-07-25T04:57:04.563Z,18.83
2017-07-25T04:58:04.489Z,18.86
2017-07-25T04:59:04.507Z,18.84
2017-07-25T05:00:04.534Z,18.84
2017-07-25T05:01:04.558Z,18.74
2017-07-25T05:02:04.602Z,18.83
2017-07-25T05:03:04.607Z,18.78
2017-07-25T05:04:04.614Z,18.88
2017-07-25T05:05:04.660Z,18.89
2017-07-25T05:06:04.665Z,18.84
2017-07-25T05:07:04.686Z,18.86
2017-07-25T05:08:04.704Z,18.81
2017-07-25T05:09:04.733Z,18.86
2017-07-25T05:10:04.871Z,18.81
2017-07-25T05:11:04.453Z,18.84
2017-07-25T05:12:04.903Z,18.9
2017-07-25T05:13:04.896Z,18.77
2017-07-25T05:14:04.902Z,18.84
2017-07-25T05:15:04.903Z,18.84
2017-07-25T05:16:05.014Z,18.86
2017-07-25T05:17:05.020Z,18.78
2017-07-25T05:18:05.016Z,18.81
2017-07-25T05:19:05.187Z,18.86
2017-07-25T05:20:05.200Z,18.86
2017-07-25T05:21:05.199Z,18.8
2017-07-25T05:22:05.024Z,18.86
2017-07-25T05:23:05.039Z,18.8
2017-07-25T05:24:05.063Z,18.8
2017-07-25T05:25:04.847Z,18.8
2017-07-25T05:26:05.126Z,18.86
2017-07-25T05:27:05.120Z,18.78
2017-07-25T05:28:05.140Z,18.77
2017-07-25T05:29:05.177Z,18.8
2017-07-25T05:30:05.189Z,18.8
2017-07-25T05:31:05.218Z,18.75
2017-07-25T05:32:04.934Z,18.78
2017-07-25T05:33:04.954Z,18.77
2017-07-25T05:34:04.973Z,18.84
2017-07-25T05:35:05.304Z,18.78
2017-07-25T05:36:05.016Z,18.75
2017-07-25T05:37:05.041Z,18.77
2017-07-25T05:38:05.054Z,18.84
2017-07-25T05:39:05.392Z,18.75
2017-07-25T05:40:05.156Z,18.8
2017-07-25T05:41:05.124Z,18.74
2017-07-25T05:42:05.470Z,18.88
2017-07-25T05:43:05.487Z,18.73
2017-07-25T05:44:05.602Z,18.74
2017-07-25T05:45:05.529Z,18.86
2017-07-25T05:46:05.238Z,18.86
2017-07-25T05:47:05.575Z,18.81
2017-07-25T05:48:05.418Z,18.77
2017-07-25T05:49:05.607Z,18.81
2017-07-25T05:50:05.638Z,18.81
2017-07-25T05:51:05.337Z,18.8
2017-07-25T05:52:05.554Z,18.77
2017-07-25T05:53:05.732Z,18.88
2017-07-25T05:54:05.725Z,18.84
2017-07-25T05:55:05.429Z,18.86
2017-07-25T05:56:05.146Z,18.8
2017-07-25T05:57:05.473Z,18.77
2017-07-25T05:58:05.818Z,18.88
2017-07-25T05:59:05.844Z,18.83
2017-07-25T06:00:05.869Z,18.83
2017-07-25T06:01:05.879Z,18.84
2017-07-25T06:02:05.918Z,18.88
2017-07-25T06:03:05.918Z,18.9
2017-07-25T06:04:05.635Z,18.88
2017-07-25T06:05:05.971Z,18.89
2017-07-25T06:06:05.997Z,18.95
2017-07-25T06:07:06.018Z,18.92
2017-07-25T06:08:06.042Z,18.95
2017-07-25T06:09:06.181Z,18.92
2017-07-25T06:10:06.203Z,18.9
2017-07-25T06:11:06.114Z,18.9
2017-07-25T06:12:06.243Z,18.86
2017-07-25T06:13:05.830Z,18.92
2017-07-25T06:14:05.873Z,18.89
2017-07-25T06:15:06.274Z,18.9
2017-07-25T06:16:06.267Z,18.86
2017-07-25T06:17:05.951Z,18.9
2017-07-25T06:18:05.952Z,18.92
2017-07-25T06:19:06.084Z,18.92
2017-07-25T06:20:06.310Z,18.92
2017-07-25T06:21:06.005Z,18.84
2017-07-25T06:22:06.024Z,18.88
2017-07-25T06:23:06.054Z,18.95
2017-07-25T06:24:06.393Z,18.9
2017-07-25T06:25:06.420Z,18.98
2017-07-25T06:26:06.434Z,18.86
2017-07-25T06:27:06.454Z,18.92
2017-07-25T06:28:06.475Z,18.86
2017-07-25T06:29:06.500Z,18.93
2017-07-25T06:30:06.220Z,18.86
2017-07-25T06:31:06.226Z,18.95
2017-07-25T06:32:06.581Z,18.88
2017-07-25T06:33:06.589Z,19
2017-07-25T06:34:06.607Z,18.88
2017-07-25T06:35:06.645Z,18.9
2017-07-25T06:36:06.686Z,18.95
2017-07-25T06:37:06.362Z,18.9
2017-07-25T06:38:06.696Z,18.95
2017-07-25T06:39:06.404Z,18.9
2017-07-25T06:40:06.745Z,18.99
2017-07-25T06:41:06.774Z,18.89
2017-07-25T06:42:06.824Z,19.02
2017-07-25T06:43:06.814Z,19
2017-07-25T06:44:06.533Z,18.89
2017-07-25T06:45:06.858Z,18.99
2017-07-25T06:46:06.887Z,19
2017-07-25T06:47:06.908Z,18.93
2017-07-25T06:48:06.922Z,18.95
2017-07-25T06:49:06.633Z,19.07
2017-07-25T06:50:06.965Z,19.09
2017-07-25T06:51:06.990Z,19
2017-07-25T06:52:07.127Z,19.08
2017-07-25T06:53:07.037Z,19.12
2017-07-25T06:54:07.156Z,19.09
2017-07-25T06:55:07.083Z,19.04
2017-07-25T06:56:07.095Z,19.07
2017-07-25T06:57:06.811Z,19.12
2017-07-25T06:58:07.164Z,19.22
2017-07-25T06:59:07.185Z,19.14
2017-07-25T07:00:06.876Z,19.12
2017-07-25T07:01:07.232Z,19.21
2017-07-25T07:02:07.235Z,19.22
2017-07-25T07:03:07.248Z,19.21
2017-07-25T07:04:06.968Z,19.24
2017-07-25T07:05:06.755Z,19.26
2017-07-25T07:06:07.319Z,19.3
2017-07-25T07:07:07.340Z,19.37
2017-07-25T07:08:07.064Z,19.31
2017-07-25T07:09:07.391Z,19.31
2017-07-25T07:10:07.418Z,19.33
2017-07-25T07:11:07.432Z,19.34
2017-07-25T07:12:07.137Z,19.3
2017-07-25T07:13:07.167Z,19.36
2017-07-25T07:14:07.500Z,19.37
2017-07-25T07:15:07.524Z,19.45
2017-07-25T07:16:07.553Z,19.52
2017-07-25T07:17:07.570Z,19.56
2017-07-25T07:18:06.954Z,19.47
2017-07-25T07:19:07.299Z,19.56
2017-07-25T07:20:07.649Z,19.59
2017-07-25T07:21:07.342Z,19.55
2017-07-25T07:22:07.685Z,19.69
2017-07-25T07:23:07.708Z,19.67
2017-07-25T07:24:07.733Z,19.58
2017-07-25T07:25:07.752Z,19.74
2017-07-25T07:26:07.455Z,19.69
2017-07-25T07:27:07.792Z,19.81
2017-07-25T07:28:07.826Z,19.74
2017-07-25T07:29:07.528Z,19.79
2017-07-25T07:30:07.899Z,19.84
2017-07-25T07:31:07.576Z,19.84
2017-07-25T07:32:07.603Z,19.77
2017-07-25T07:33:07.305Z,19.79
2017-07-25T07:34:07.642Z,19.91
2017-07-25T07:35:07.668Z,19.88
2017-07-25T07:36:07.723Z,19.88
2017-07-25T07:37:08.038Z,19.95
2017-07-25T07:38:07.738Z,19.99
2017-07-25T07:39:08.076Z,19.95
2017-07-25T07:40:07.839Z,20
2017-07-25T07:41:08.130Z,19.99
2017-07-25T07:42:07.831Z,20.03
2017-07-25T07:43:07.852Z,20.14
2017-07-25T07:44:08.206Z,20.04
2017-07-25T07:45:07.897Z,20.1
2017-07-25T07:46:08.277Z,20.04
2017-07-25T07:47:07.948Z,20.06
2017-07-25T07:48:08.287Z,20.1
2017-07-25T07:49:08.007Z,20.16
2017-07-25T07:50:08.015Z,20.11
2017-07-25T07:51:08.348Z,20.18
2017-07-25T07:52:07.738Z,20.18
2017-07-25T07:53:08.398Z,20.19
2017-07-25T07:54:08.442Z,20.13
2017-07-25T07:56:08.687Z,20.13
2017-07-25T07:57:08.346Z,20.29
2017-07-25T07:58:08.700Z,20.28
2017-07-25T07:59:08.560Z,20.29
2017-07-25T08:00:08.717Z,20.16
2017-07-25T08:01:08.262Z,20.32
2017-07-25T08:02:08.605Z,20.28
2017-07-25T08:03:08.306Z,20.32
2017-07-25T08:04:08.332Z,20.29
2017-07-25T08:05:08.674Z,20.32
2017-07-25T08:06:08.951Z,20.34
2017-07-25T08:07:08.868Z,20.43
2017-07-25T08:08:08.736Z,20.37
2017-07-25T08:09:08.236Z,20.4
2017-07-25T08:10:08.787Z,20.41
2017-07-25T08:11:08.486Z,20.47
2017-07-25T08:12:08.608Z,20.48
2017-07-25T08:13:08.853Z,20.39
2017-07-25T08:14:08.561Z,20.52
2017-07-25T08:15:08.584Z,20.55
2017-07-25T08:16:08.918Z,20.5
2017-07-25T08:17:08.628Z,20.65
2017-07-25T08:18:08.967Z,20.63
2017-07-25T08:19:09.000Z,20.59
2017-07-25T08:20:09.013Z,20.67
2017-07-25T08:21:09.038Z,20.74
2017-07-25T08:22:09.069Z,20.8
2017-07-25T08:23:09.084Z,20.75
2017-07-25T08:24:09.108Z,20.82
2017-07-25T08:25:08.843Z,20.84
2017-07-25T08:26:09.159Z,20.95
2017-07-25T08:27:08.548Z,20.87
2017-07-25T08:28:09.196Z,20.95
2017-07-25T08:29:08.910Z,21
2017-07-25T08:30:09.249Z,21.02
2017-07-25T08:31:09.266Z,21.07
2017-07-25T08:32:08.972Z,21.09
2017-07-25T08:33:08.998Z,21.2
2017-07-25T08:34:09.337Z,21.17
2017-07-25T08:35:09.046Z,21.18
2017-07-25T08:36:09.388Z,21.22
2017-07-25T08:37:09.086Z,21.24
2017-07-25T08:38:09.431Z,21.25
2017-07-25T08:39:09.462Z,21.29
2017-07-25T08:40:09.477Z,21.3
2017-07-25T08:41:09.497Z,21.36
2017-07-25T08:42:09.530Z,21.43
2017-07-25T08:43:09.550Z,21.43
2017-07-25T08:44:09.566Z,21.39
2017-07-25T08:45:09.596Z,21.5
2017-07-25T08:46:09.302Z,21.61
2017-07-25T08:47:09.319Z,21.58
2017-07-25T08:48:09.659Z,21.57
2017-07-25T08:49:09.694Z,21.58
2017-07-25T08:50:09.712Z,21.7
2017-07-25T08:51:09.748Z,21.69
2017-07-25T08:52:09.758Z,21.76
2017-07-25T08:53:09.783Z,21.67
2017-07-25T08:54:09.813Z,21.82
2017-07-25T08:55:09.834Z,21.77
2017-07-25T08:56:10.051Z,21.88
2017-07-25T08:57:09.244Z,21.8
2017-07-25T08:58:10.022Z,21.91
2017-07-25T08:59:10.064Z,21.95
2017-07-25T09:00:10.066Z,22
2017-07-25T09:01:09.766Z,22
2017-07-25T09:02:09.919Z,22.02
2017-07-25T09:03:10.101Z,22
2017-07-25T09:04:10.170Z,22.02
2017-07-25T09:05:10.137Z,22.17
2017-07-25T09:06:10.137Z,22.18
2017-07-25T09:07:10.144Z,22.22
2017-07-25T09:08:10.142Z,22.18
2017-07-25T09:09:10.162Z,22.22
2017-07-25T09:10:10.191Z,22.43
2017-07-25T09:11:10.212Z,22.41
2017-07-25T09:12:09.917Z,22.47
2017-07-25T09:13:10.396Z,22.57
2017-07-25T09:14:09.971Z,22.47
2017-07-25T09:15:10.308Z,22.48
2017-07-25T09:16:10.334Z,22.54
2017-07-25T09:17:10.039Z,22.65
2017-07-25T09:18:10.377Z,22.57
2017-07-25T09:19:10.093Z,22.6
2017-07-25T09:20:10.426Z,22.69
2017-07-25T09:21:10.146Z,22.72
2017-07-25T09:22:10.481Z,22.83
2017-07-25T09:23:09.877Z,22.88
2017-07-25T09:24:10.544Z,22.84
2017-07-25T09:25:10.254Z,22.93
2017-07-25T09:26:09.957Z,23.03
2017-07-25T09:27:10.349Z,23.09
2017-07-25T09:28:10.340Z,23.09
2017-07-25T09:29:10.658Z,23.17
2017-07-25T09:30:10.686Z,23.24
2017-07-25T09:31:10.696Z,23.2
2017-07-25T09:32:10.407Z,23.41
2017-07-25T09:33:10.749Z,23.39
2017-07-25T09:34:10.137Z,23.47
2017-07-25T09:35:10.483Z,23.56
2017-07-25T09:36:10.820Z,23.63
2017-07-25T09:37:10.849Z,23.74
2017-07-25T09:38:10.880Z,23.74
2017-07-25T09:39:10.896Z,23.77
2017-07-25T09:40:10.600Z,23.81
2017-07-25T09:41:10.949Z,23.84
2017-07-25T09:42:10.975Z,23.95
2017-07-25T09:43:10.677Z,24.03
2017-07-25T09:44:11.017Z,24.05
2017-07-25T09:45:11.049Z,24.17
2017-07-25T09:46:11.071Z,24.28
2017-07-25T09:47:11.098Z,24.39
2017-07-25T09:48:11.123Z,24.33
2017-07-25T09:49:11.150Z,24.43
2017-07-25T09:50:11.172Z,24.47
2017-07-25T09:51:11.258Z,24.51
2017-07-25T09:52:10.909Z,24.58
2017-07-25T09:53:11.251Z,24.61
2017-07-25T09:54:10.955Z,24.63
2017-07-25T09:55:11.306Z,24.66
2017-07-25T09:56:11.330Z,24.66
2017-07-25T09:57:11.349Z,24.77
2017-07-25T09:58:11.067Z,24.76
2017-07-25T09:59:11.400Z,24.78
2017-07-25T10:00:10.786Z,24.78
2017-07-25T10:01:11.133Z,24.84
2017-07-25T10:02:11.158Z,24.84
2017-07-25T10:03:11.181Z,24.73
2017-07-25T10:04:11.533Z,24.74
2017-07-25T10:05:11.553Z,24.8
2017-07-25T10:06:11.582Z,24.74
2017-07-25T10:07:11.281Z,24.77
2017-07-25T10:08:11.640Z,24.76
2017-07-25T10:09:11.656Z,24.77
2017-07-25T10:10:11.684Z,24.69
2017-07-25T10:11:11.707Z,24.69
2017-07-25T10:12:11.840Z,24.65
2017-07-25T10:13:11.851Z,24.74
2017-07-25T10:14:11.876Z,24.74
2017-07-25T10:15:11.872Z,24.74
2017-07-25T10:16:11.892Z,24.85
2017-07-25T10:17:11.872Z,24.81
2017-07-25T10:18:11.686Z,24.8
2017-07-25T10:19:11.598Z,24.86
2017-07-25T10:20:12.034Z,24.85
2017-07-25T10:21:12.039Z,24.85
2017-07-25T10:22:12.036Z,24.84
2017-07-25T10:23:11.807Z,24.95
2017-07-25T10:24:11.813Z,24.96
2017-07-25T10:25:12.154Z,25.03
2017-07-25T10:26:11.864Z,25.13
2017-07-25T10:27:12.014Z,25.1
2017-07-25T10:28:12.240Z,25.13
2017-07-25T10:29:12.346Z,25.11
2017-07-25T10:30:12.019Z,25.13
2017-07-25T10:31:12.028Z,25.18
2017-07-25T10:32:11.933Z,25.16
2017-07-25T10:33:11.968Z,25.21
2017-07-25T10:34:12.299Z,25.22
2017-07-25T10:35:12.331Z,25.26
2017-07-25T10:36:12.353Z,25.25
2017-07-25T10:37:12.065Z,25.26
2017-07-25T10:38:12.415Z,25.38
2017-07-25T10:39:12.117Z,25.32
2017-07-25T10:40:12.138Z,25.33
2017-07-25T10:41:12.172Z,25.35
2017-07-25T10:42:12.522Z,25.38
2017-07-25T10:43:12.535Z,25.43
2017-07-25T10:44:12.563Z,25.44
2017-07-25T10:45:12.454Z,25.54
2017-07-25T10:46:12.298Z,25.58
2017-07-25T10:47:12.642Z,25.48
2017-07-25T10:48:12.349Z,25.63
2017-07-25T10:49:12.379Z,25.69
2017-07-25T10:50:12.108Z,25.69
2017-07-25T10:51:12.747Z,25.77
2017-07-25T10:52:12.774Z,25.87
2017-07-25T10:53:12.507Z,25.85
2017-07-25T10:54:12.830Z,25.95
2017-07-25T10:55:12.854Z,25.95
2017-07-25T10:56:12.242Z,26.06
2017-07-25T10:57:12.906Z,26.15
2017-07-25T10:58:12.299Z,26.07
2017-07-25T10:59:12.327Z,26.21
2017-07-25T11:00:12.671Z,26.28
2017-07-25T11:01:13.024Z,26.19
2017-07-25T11:02:13.036Z,26.23
2017-07-25T11:03:13.066Z,26.22
2017-07-25T11:04:13.098Z,26.26
2017-07-25T11:05:12.805Z,26.33
2017-07-25T11:06:13.151Z,26.31
2017-07-25T11:07:12.858Z,26.26
2017-07-25T11:08:12.563Z,26.28
2017-07-25T11:09:12.910Z,26.34
2017-07-25T11:10:13.249Z,26.22
2017-07-25T11:11:12.963Z,26.18
2017-07-25T11:12:13.312Z,26.13
2017-07-25T11:13:13.079Z,26.21
2017-07-25T11:14:13.041Z,26.07
2017-07-25T11:15:13.072Z,26.07
2017-07-25T11:16:12.779Z,25.96
2017-07-25T11:17:13.210Z,25.88
2017-07-25T11:18:13.238Z,25.93
2017-07-25T11:19:12.858Z,25.81
2017-07-25T11:20:13.565Z,25.81
2017-07-25T11:21:13.275Z,25.77
2017-07-25T11:22:13.273Z,25.73
2017-07-25T11:23:13.293Z,25.69
2017-07-25T11:24:13.404Z,25.68
2017-07-25T11:25:13.430Z,25.54
2017-07-25T11:26:13.429Z,25.59
2017-07-25T11:27:13.439Z,25.5
2017-07-25T11:28:13.741Z,25.47
2017-07-25T11:29:13.758Z,25.44
2017-07-25T11:30:13.823Z,25.47
2017-07-25T11:31:13.818Z,25.38
2017-07-25T11:32:13.272Z,25.29
2017-07-25T11:33:13.873Z,25.29
2017-07-25T11:34:13.601Z,25.25
2017-07-25T11:35:13.923Z,25.17
2017-07-25T11:36:13.950Z,25.21
2017-07-25T11:37:13.450Z,25.1
2017-07-25T11:38:14.007Z,24.99
2017-07-25T11:39:14.040Z,24.98
2017-07-25T11:40:14.063Z,24.96
2017-07-25T11:41:14.091Z,24.85
2017-07-25T11:42:14.107Z,24.91
2017-07-25T11:43:14.136Z,24.85
2017-07-25T11:44:14.173Z,24.78
2017-07-25T11:45:14.192Z,24.76
2017-07-25T11:46:13.901Z,24.63
2017-07-25T11:47:14.254Z,24.58
2017-07-25T11:48:14.275Z,24.66
2017-07-25T11:49:14.300Z,24.54
2017-07-25T11:50:14.004Z,24.55
2017-07-25T11:51:14.039Z,24.4
2017-07-25T11:52:14.376Z,24.43
2017-07-25T11:53:14.412Z,24.4
2017-07-25T11:54:14.118Z,24.29
2017-07-25T11:55:14.136Z,24.28
2017-07-25T11:56:14.482Z,24.21
2017-07-25T11:57:14.508Z,24.17
2017-07-25T11:58:14.536Z,24.06
2017-07-25T11:59:14.560Z,24.06
2017-07-25T12:00:14.269Z,24.01
2017-07-25T12:01:14.719Z,23.93
2017-07-25T12:02:14.434Z,23.95
2017-07-25T12:03:14.548Z,23.88
2017-07-25T12:04:14.060Z,23.91
2017-07-25T12:05:14.769Z,23.84
2017-07-25T12:06:14.746Z,23.78
2017-07-25T12:07:14.457Z,23.81
2017-07-25T12:08:14.485Z,23.8
2017-07-25T12:09:14.504Z,23.69
2017-07-25T12:10:14.863Z,23.69
2017-07-25T12:11:14.877Z,23.66
2017-07-25T12:12:14.589Z,23.65
2017-07-25T12:13:14.943Z,23.63
2017-07-25T12:14:14.957Z,23.59
2017-07-25T12:15:14.979Z,23.56
2017-07-25T12:16:15.135Z,23.54
2017-07-25T12:17:15.115Z,23.5
2017-07-25T12:18:15.142Z,23.54
2017-07-25T12:19:14.767Z,23.56
2017-07-25T12:20:15.139Z,23.47
2017-07-25T12:21:14.820Z,23.47
2017-07-25T12:22:14.857Z,23.46
2017-07-25T12:23:14.868Z,23.55
2017-07-25T12:24:14.899Z,23.5
2017-07-25T12:25:15.303Z,23.55
2017-07-25T12:26:15.301Z,23.54
2017-07-25T12:27:14.973Z,23.56
2017-07-25T12:28:15.122Z,23.62
2017-07-25T12:29:15.421Z,23.59
2017-07-25T12:30:15.148Z,23.63
2017-07-25T12:31:15.447Z,23.66
2017-07-25T12:32:15.526Z,23.68
2017-07-25T12:33:15.455Z,23.69
2017-07-25T12:34:15.159Z,23.73
2017-07-25T12:35:15.530Z,23.69
2017-07-25T12:36:15.312Z,23.66
2017-07-25T12:37:14.917Z,23.76
2017-07-25T12:38:15.578Z,23.74
2017-07-25T12:39:15.606Z,23.71
2017-07-25T12:40:15.626Z,23.78
2017-07-25T12:41:15.683Z,23.86
2017-07-25T12:42:15.680Z,23.81
2017-07-25T12:43:15.708Z,23.73
2017-07-25T12:44:15.596Z,23.74
2017-07-25T12:45:15.752Z,23.86
2017-07-25T12:46:15.469Z,23.88
2017-07-25T12:47:15.805Z,23.86
2017-07-25T12:48:15.520Z,23.92
2017-07-25T12:49:15.862Z,23.96
2017-07-25T12:50:15.988Z,23.99
2017-07-25T12:51:15.915Z,24.03
2017-07-25T12:52:15.623Z,24.03
2017-07-25T12:53:15.962Z,24.16
2017-07-25T12:54:16.003Z,24.21
2017-07-25T12:55:16.021Z,24.26
2017-07-25T12:56:15.724Z,24.29
2017-07-25T12:57:16.068Z,24.33
2017-07-25T12:58:16.095Z,24.42